Time;durP1;ratioP1;P1;durP2;ratioP2;P2;SDS_P1;SDS_P2;PMS_P1;PMS_P2;Temp;Humidity;BMP_temperature;BMP_pressure;BME280_temperature;BME280_humidity;BME280_pressure;Samples;Min_cycle;Max_cycle;Signal;HPM_P1;HPM_P2
2023/10/21 00:02:09;;;;;;;0.98;0.70;;;11.50;99.90;;;;;;7592258;19;20022;-74
2023/10/21 00:04:41;;;;;;;1.10;0.93;;;11.60;99.90;;;;;;7600001;19;20022;-74
2023/10/21 00:07:13;;;;;;;0.65;0.57;;;11.70;99.90;;;;;;7582450;19;20015;-74
2023/10/21 00:09:46;;;;;;;2.22;0.90;;;11.60;99.90;;;;;;7589737;19;20455;-73
2023/10/21 00:12:20;;;;;;;1.73;0.88;;;11.60;99.90;;;;;;7596692;19;20015;-74
2023/10/21 00:14:52;;;;;;;1.83;1.30;;;11.50;99.90;;;;;;7603368;19;20018;-74
2023/10/21 00:17:27;;;;;;;3.15;1.02;;;11.50;99.90;;;;;;7600800;19;20018;-74
2023/10/21 00:19:59;;;;;;;0.70;0.70;;;11.50;99.90;;;;;;7601330;19;20018;-74
2023/10/21 00:22:32;;;;;;;1.40;0.60;;;11.40;99.90;;;;;;7600827;19;20038;-74
2023/10/21 00:25:05;;;;;;;2.45;0.82;;;11.30;99.90;;;;;;7600644;19;20011;-74
2023/10/21 00:27:38;;;;;;;2.58;0.60;;;11.30;99.90;;;;;;7600795;19;20048;-73
2023/10/21 00:30:11;;;;;;;2.58;1.02;;;11.30;99.90;;;;;;7600709;19;20506;-73
2023/10/21 00:32:44;;;;;;;1.73;0.98;;;11.20;99.90;;;;;;7604717;19;20027;-73
2023/10/21 00:35:16;;;;;;;1.38;0.77;;;11.20;99.90;;;;;;7588425;19;20014;-73
2023/10/21 00:37:49;;;;;;;0.97;0.70;;;11.10;99.90;;;;;;7589983;19;20018;-73
2023/10/21 00:40:21;;;;;;;1.10;0.60;;;11.10;99.90;;;;;;7592600;19;21177;-74
2023/10/21 00:42:54;;;;;;;1.65;0.70;;;11.10;99.90;;;;;;7592321;19;20018;-74
2023/10/21 00:45:26;;;;;;;0.97;0.60;;;11.10;99.90;;;;;;7591666;19;20098;-73
2023/10/21 00:47:58;;;;;;;1.05;0.70;;;11.00;99.90;;;;;;7599296;19;20022;-73
2023/10/21 00:50:31;;;;;;;1.27;0.68;;;11.00;99.90;;;;;;7600786;19;20089;-73
2023/10/21 00:53:04;;;;;;;1.63;0.60;;;11.00;99.90;;;;;;7595376;19;20085;-73
2023/10/21 00:55:36;;;;;;;1.67;0.80;;;11.20;99.90;;;;;;7599918;19;20023;-73
2023/10/21 00:58:08;;;;;;;1.67;0.90;;;11.20;99.90;;;;;;7592772;19;20018;-73
2023/10/21 01:00:40;;;;;;;2.22;0.80;;;11.20;99.90;;;;;;7595615;19;20022;-74
2023/10/21 01:03:13;;;;;;;1.10;0.80;;;11.10;99.90;;;;;;7587365;19;20520;-73
2023/10/21 01:05:45;;;;;;;1.55;0.93;;;11.10;99.90;;;;;;7591973;19;20018;-73
2023/10/21 01:08:17;;;;;;;1.67;0.88;;;11.00;99.90;;;;;;7579994;19;20014;-73
2023/10/21 01:10:49;;;;;;;2.50;1.13;;;11.00;99.90;;;;;;7590107;19;20043;-74
2023/10/21 01:13:22;;;;;;;1.15;0.88;;;11.00;99.90;;;;;;7595826;19;20022;-74
2023/10/21 01:15:55;;;;;;;1.52;0.93;;;11.00;99.90;;;;;;7596203;19;20029;-73
2023/10/21 01:18:33;;;;;;;;;;;11.10;99.90;;;;;;7598053;19;20010;-74
2023/10/21 01:21:06;;;;;;;2.65;1.27;;;11.00;99.90;;;;;;7592420;19;19954;-74
2023/10/21 01:23:39;;;;;;;1.65;0.93;;;10.90;99.90;;;;;;7590145;19;20033;-73
2023/10/21 01:26:12;;;;;;;2.78;1.05;;;10.90;99.90;;;;;;7590284;19;20109;-74
2023/10/21 01:28:45;;;;;;;2.85;0.95;;;10.90;99.90;;;;;;7597401;19;20023;-75
2023/10/21 01:31:17;;;;;;;2.00;1.08;;;10.90;99.90;;;;;;7588257;19;20026;-75
2023/10/21 01:33:50;;;;;;;2.10;1.30;;;10.90;99.90;;;;;;7591655;19;20672;-72
2023/10/21 01:36:22;;;;;;;3.55;1.23;;;11.00;99.90;;;;;;7591988;19;20275;-75
2023/10/21 01:38:55;;;;;;;1.13;0.88;;;11.00;99.90;;;;;;7578285;19;20022;-75
2023/10/21 01:41:27;;;;;;;1.70;1.30;;;11.00;99.90;;;;;;7594506;19;20548;-75
2023/10/21 01:43:59;;;;;;;1.48;1.10;;;11.00;99.90;;;;;;7594341;19;21072;-75
2023/10/21 01:46:31;;;;;;;3.88;0.90;;;11.00;99.90;;;;;;7592102;19;20029;-75
2023/10/21 01:49:04;;;;;;;1.73;1.10;;;11.10;99.90;;;;;;7591339;19;20061;-74
2023/10/21 01:51:36;;;;;;;1.70;1.10;;;11.20;99.90;;;;;;7594875;19;20022;-75
2023/10/21 01:54:08;;;;;;;1.35;0.95;;;11.20;99.90;;;;;;7587560;19;20010;-74
2023/10/21 01:56:41;;;;;;;1.17;0.65;;;11.20;99.90;;;;;;7592683;19;20018;-74
2023/10/21 01:59:14;;;;;;;1.98;0.98;;;11.20;99.90;;;;;;7586592;19;20014;-74
2023/10/21 02:01:46;;;;;;;1.75;0.98;;;11.10;99.90;;;;;;7586462;19;20364;-74
2023/10/21 02:04:19;;;;;;;2.75;0.80;;;11.00;99.90;;;;;;7589735;19;21085;-74
2023/10/21 02:06:51;;;;;;;1.25;0.90;;;11.10;99.90;;;;;;7590209;19;20086;-75
2023/10/21 02:09:23;;;;;;;1.98;0.90;;;11.10;99.90;;;;;;7586016;19;20056;-75
2023/10/21 02:11:56;;;;;;;3.22;1.08;;;11.20;99.90;;;;;;7588843;19;20014;-75
2023/10/21 02:14:28;;;;;;;4.63;1.00;;;11.20;99.90;;;;;;7596316;19;20007;-75
2023/10/21 02:17:00;;;;;;;1.00;0.70;;;11.20;99.90;;;;;;7583551;19;20006;-75
2023/10/21 02:19:33;;;;;;;1.65;1.00;;;11.20;99.90;;;;;;7592298;19;20504;-75
2023/10/21 02:22:06;;;;;;;;;;;11.20;99.90;;;;;;7594575;19;20102;-75
2023/10/21 02:24:39;;;;;;;2.83;1.35;;;11.20;99.90;;;;;;7592491;19;20931;-75
2023/10/21 02:27:12;;;;;;;1.23;0.95;;;11.20;99.90;;;;;;7594825;19;20061;-75
2023/10/21 02:29:44;;;;;;;;;;;11.10;99.90;;;;;;7591157;19;20077;-74
2023/10/21 02:32:17;;;;;;;1.27;0.88;;;11.10;99.90;;;;;;7588253;19;20344;-74
2023/10/21 02:34:54;;;;;;;1.58;0.90;;;11.10;99.90;;;;;;7602161;19;20022;-74
2023/10/21 02:37:26;;;;;;;5.22;2.97;;;11.10;99.90;;;;;;7597649;19;20086;-75
2023/10/21 02:39:59;;;;;;;5.97;2.40;;;11.20;99.90;;;;;;7598682;19;20043;-74
2023/10/21 02:42:31;;;;;;;103.10;35.10;;;11.10;99.90;;;;;;7593109;19;20043;-74
2023/10/21 02:45:03;;;;;;;2.78;1.50;;;11.10;99.90;;;;;;7585500;19;20060;-74
2023/10/21 02:47:36;;;;;;;1.67;1.00;;;11.10;99.90;;;;;;7599958;19;20022;-74
2023/10/21 02:50:09;;;;;;;3.42;0.95;;;11.20;99.90;;;;;;7600317;19;20017;-74
2023/10/21 02:52:42;;;;;;;2.90;0.70;;;11.20;99.90;;;;;;7592440;19;20499;-74
2023/10/21 02:55:14;;;;;;;1.23;0.90;;;11.30;99.90;;;;;;7597937;19;20037;-74
2023/10/21 02:57:46;;;;;;;1.58;0.80;;;11.30;99.90;;;;;;7601218;19;20044;-74
2023/10/21 03:00:21;;;;;;;1.40;0.90;;;11.30;99.90;;;;;;7589091;19;20143;-74
2023/10/21 03:02:53;;;;;;;1.15;0.75;;;11.20;99.90;;;;;;7585637;19;20018;-74
2023/10/21 03:05:26;;;;;;;1.05;0.80;;;11.30;99.90;;;;;;7600300;19;21029;-74
2023/10/21 03:07:58;;;;;;;0.93;0.55;;;11.30;99.90;;;;;;7577973;19;21811;-74
2023/10/21 03:10:31;;;;;;;1.30;0.95;;;11.30;99.90;;;;;;7575136;19;20014;-74
2023/10/21 03:13:03;;;;;;;1.92;0.60;;;11.20;99.90;;;;;;7586384;19;20033;-74
2023/10/21 03:15:35;;;;;;;0.85;0.65;;;11.20;99.90;;;;;;7587777;19;20011;-73
2023/10/21 03:18:08;;;;;;;2.45;0.60;;;11.20;99.90;;;;;;7583268;19;20014;-74
2023/10/21 03:20:40;;;;;;;1.50;0.75;;;11.20;99.90;;;;;;7595846;19;20022;-74
2023/10/21 03:23:13;;;;;;;1.63;0.60;;;11.30;99.90;;;;;;7582583;19;20075;-74
2023/10/21 03:25:58;;;;;;;1.75;0.68;;;11.20;99.90;;;;;;7594726;19;20018;-74
2023/10/21 03:28:31;;;;;;;1.42;0.65;;;11.20;99.90;;;;;;7583328;19;20032;-74
2023/10/21 03:31:06;;;;;;;1.02;0.70;;;11.30;99.90;;;;;;7594799;19;20038;-74
2023/10/21 03:33:38;;;;;;;1.85;0.60;;;11.30;99.90;;;;;;7594505;19;20022;-74
2023/10/21 03:36:12;;;;;;;0.40;0.40;;;11.30;99.90;;;;;;7583525;19;20014;-74
2023/10/21 03:38:44;;;;;;;1.27;0.73;;;11.30;99.90;;;;;;7594046;19;20026;-74
2023/10/21 03:41:16;;;;;;;0.90;0.57;;;11.30;99.90;;;;;;7582925;19;20988;-74
2023/10/21 03:43:50;;;;;;;3.15;0.60;;;11.30;99.90;;;;;;7587116;19;20018;-74
2023/10/21 03:46:22;;;;;;;1.10;0.65;;;11.20;99.90;;;;;;7583694;19;20903;-74
2023/10/21 03:48:54;;;;;;;0.98;0.60;;;11.20;99.90;;;;;;7599058;19;20101;-74
2023/10/21 03:51:27;;;;;;;1.13;0.77;;;11.20;99.90;;;;;;7585511;19;20029;-74
2023/10/21 03:53:59;;;;;;;2.50;0.70;;;11.10;99.90;;;;;;7593217;19;20017;-74
2023/10/21 03:56:32;;;;;;;0.60;0.50;;;11.10;99.90;;;;;;7583005;19;20006;-74
2023/10/21 03:59:04;;;;;;;1.40;1.10;;;11.10;99.90;;;;;;7584879;19;20014;-73
2023/10/21 04:01:36;;;;;;;1.60;0.70;;;11.00;99.90;;;;;;7588886;19;20934;-74
2023/10/21 04:04:08;;;;;;;0.95;0.73;;;11.00;99.90;;;;;;7588433;19;20090;-74
2023/10/21 04:06:41;;;;;;;1.30;0.70;;;11.00;99.90;;;;;;7591738;19;20727;-73
2023/10/21 04:09:14;;;;;;;2.72;0.60;;;11.10;99.90;;;;;;7582639;19;20291;-75
2023/10/21 04:11:46;;;;;;;3.22;0.70;;;11.10;99.90;;;;;;7592556;19;20085;-75
2023/10/21 04:14:18;;;;;;;1.83;0.70;;;11.00;99.90;;;;;;7594822;19;20035;-75
2023/10/21 04:16:50;;;;;;;3.80;0.80;;;11.00;99.90;;;;;;7597495;19;20045;-75
2023/10/21 04:19:23;;;;;;;2.08;0.90;;;10.90;99.90;;;;;;7581073;19;21092;-75
2023/10/21 04:21:56;;;;;;;2.58;1.27;;;10.90;99.90;;;;;;7601491;19;20519;-73
2023/10/21 04:24:28;;;;;;;1.58;1.00;;;10.90;99.90;;;;;;7580904;19;20067;-75
2023/10/21 04:27:00;;;;;;;1.10;0.60;;;10.90;99.90;;;;;;7589473;19;20006;-75
2023/10/21 04:29:33;;;;;;;2.10;0.95;;;10.90;99.90;;;;;;7584610;19;20485;-74
2023/10/21 04:32:06;;;;;;;2.90;0.85;;;10.90;99.90;;;;;;7594238;19;20922;-74
2023/10/21 04:34:38;;;;;;;3.17;1.45;;;10.90;99.90;;;;;;7581614;19;20014;-74
2023/10/21 04:37:11;;;;;;;0.93;0.83;;;10.90;99.90;;;;;;7577004;19;20026;-74
2023/10/21 04:39:43;;;;;;;1.60;1.30;;;10.90;99.90;;;;;;7597723;19;20018;-74
2023/10/21 04:42:15;;;;;;;1.80;1.00;;;10.90;99.90;;;;;;7588268;19;20026;-74
2023/10/21 04:44:47;;;;;;;2.50;0.90;;;10.90;99.90;;;;;;7592820;19;20026;-74
2023/10/21 04:47:20;;;;;;;1.50;1.20;;;10.90;99.90;;;;;;7581443;19;20014;-75
2023/10/21 04:49:52;;;;;;;1.88;1.20;;;11.00;99.90;;;;;;7596373;19;20092;-75
2023/10/21 04:52:24;;;;;;;1.10;0.90;;;11.00;99.90;;;;;;7590372;19;20019;-75
2023/10/21 04:54:57;;;;;;;1.63;0.90;;;11.10;99.90;;;;;;7599474;19;20015;-74
2023/10/21 04:57:30;;;;;;;1.63;1.00;;;11.20;99.90;;;;;;7584887;19;20111;-74
2023/10/21 05:00:03;;;;;;;1.48;1.02;;;11.20;99.90;;;;;;7577650;19;20721;-75
2023/10/21 05:02:36;;;;;;;2.90;1.33;;;11.30;99.90;;;;;;7573701;19;20720;-74
2023/10/21 05:05:09;;;;;;;1.20;0.90;;;11.30;99.90;;;;;;7578271;19;20059;-73
2023/10/21 05:07:41;;;;;;;2.50;1.38;;;11.30;99.90;;;;;;7571117;19;20063;-73
2023/10/21 05:10:14;;;;;;;3.90;1.55;;;11.30;99.90;;;;;;7582996;19;20010;-73
2023/10/21 05:12:46;;;;;;;3.17;1.30;;;11.20;99.90;;;;;;7590911;19;20034;-74
2023/10/21 05:15:19;;;;;;;2.30;1.13;;;11.30;99.90;;;;;;7598317;19;20019;-73
2023/10/21 05:17:51;;;;;;;1.38;0.90;;;11.30;99.90;;;;;;7591766;19;20789;-73
2023/10/21 05:20:23;;;;;;;1.55;0.80;;;11.30;99.90;;;;;;7597873;19;20029;-73
2023/10/21 05:22:55;;;;;;;3.03;1.40;;;11.20;99.90;;;;;;7599845;19;20496;-73
2023/10/21 05:25:28;;;;;;;3.78;1.13;;;11.20;99.90;;;;;;7593114;19;20018;-73
2023/10/21 05:28:00;;;;;;;4.57;1.63;;;11.20;99.90;;;;;;7600666;19;21019;-73
2023/10/21 05:30:32;;;;;;;4.60;1.75;;;11.10;99.90;;;;;;7593921;19;20539;-73
2023/10/21 05:33:05;;;;;;;1.75;1.30;;;11.10;99.90;;;;;;7602597;19;20100;-74
2023/10/21 05:35:41;;;;;;;3.85;1.38;;;11.00;99.90;;;;;;7595034;19;20037;-73
2023/10/21 05:38:13;;;;;;;3.25;1.00;;;10.90;99.90;;;;;;7599499;19;20018;-73
2023/10/21 05:40:45;;;;;;;4.13;0.80;;;10.90;99.90;;;;;;7595450;19;20019;-73
2023/10/21 05:43:18;;;;;;;1.40;0.90;;;10.80;99.90;;;;;;7596915;19;20027;-73
2023/10/21 05:45:50;;;;;;;1.93;1.10;;;10.80;99.90;;;;;;7581919;19;20018;-73
2023/10/21 05:48:23;;;;;;;3.50;2.42;;;10.70;99.90;;;;;;7580774;19;20026;-73
2023/10/21 05:51:02;;;;;;;3.63;2.35;;;10.70;99.90;;;;;;7592344;19;20777;-75
2023/10/21 05:53:34;;;;;;;2.67;1.65;;;10.70;99.90;;;;;;7583455;19;20011;-73
2023/10/21 05:56:06;;;;;;;2.50;1.90;;;10.60;99.90;;;;;;7589336;19;20026;-75
2023/10/21 05:58:42;;;;;;;2.03;1.58;;;10.60;99.90;;;;;;7589722;19;20472;-75
2023/10/21 06:01:15;;;;;;;4.38;2.00;;;10.60;99.90;;;;;;7586440;19;21088;-75
2023/10/21 06:03:48;;;;;;;2.85;2.20;;;10.60;99.90;;;;;;7583113;19;20015;-73
2023/10/21 06:06:21;;;;;;;3.97;2.22;;;10.60;99.90;;;;;;7580877;19;20867;-73
2023/10/21 06:08:53;;;;;;;7.95;2.70;;;10.60;99.90;;;;;;7577907;19;20014;-75
2023/10/21 06:11:25;;;;;;;5.07;2.92;;;10.70;99.90;;;;;;7589740;19;20019;-73
2023/10/21 06:13:57;;;;;;;5.65;3.10;;;10.70;99.90;;;;;;7594548;19;20021;-73
2023/10/21 06:16:30;;;;;;;4.65;2.30;;;10.70;99.90;;;;;;7590243;19;20010;-75
2023/10/21 06:19:02;;;;;;;4.82;2.75;;;10.60;99.90;;;;;;7587782;19;20018;-75
2023/10/21 06:21:36;;;;;;;2.50;1.83;;;10.70;99.90;;;;;;7581485;19;20014;-75
2023/10/21 06:24:08;;;;;;;3.95;2.10;;;10.70;99.90;;;;;;7583659;19;20018;-75
2023/10/21 06:26:41;;;;;;;3.17;1.70;;;10.70;99.90;;;;;;7584474;19;20014;-75
2023/10/21 06:29:13;;;;;;;4.20;2.10;;;10.70;99.90;;;;;;7577832;19;20579;-75
2023/10/21 06:31:45;;;;;;;2.38;1.65;;;10.80;99.90;;;;;;7580934;19;20057;-74
2023/10/21 06:34:18;;;;;;;4.55;1.80;;;10.80;99.90;;;;;;7588108;19;20636;-75
2023/10/21 06:36:50;;;;;;;2.67;1.90;;;10.90;99.90;;;;;;7576139;19;20052;-75
2023/10/21 06:39:22;;;;;;;5.55;2.40;;;10.90;99.90;;;;;;7582839;19;22123;-75
2023/10/21 06:41:56;;;;;;;3.20;1.80;;;10.90;99.90;;;;;;7586269;19;20392;-72
2023/10/21 06:44:28;;;;;;;;;;;10.90;99.90;;;;;;7587489;19;20018;-72
2023/10/21 06:47:01;;;;;;;2.85;2.10;;;10.90;99.90;;;;;;7579522;19;19919;-75
2023/10/21 06:49:33;;;;;;;4.45;2.20;;;10.80;99.90;;;;;;7588299;19;20015;-75
2023/10/21 06:52:05;;;;;;;11.13;2.22;;;10.80;99.90;;;;;;7579711;19;20094;-75
2023/10/21 06:54:38;;;;;;;2.45;1.63;;;10.90;99.90;;;;;;7582761;19;20014;-75
2023/10/21 06:57:10;;;;;;;2.95;1.73;;;11.00;99.90;;;;;;7575984;19;20014;-75
2023/10/21 06:59:42;;;;;;;4.60;2.20;;;11.10;99.90;;;;;;7572194;19;20049;-75
2023/10/21 07:02:14;;;;;;;4.30;1.90;;;11.20;99.90;;;;;;7569307;19;20021;-75
2023/10/21 07:04:47;;;;;;;6.22;1.58;;;11.40;99.90;;;;;;7569751;19;20634;-75
2023/10/21 07:07:20;;;;;;;9.30;2.03;;;11.50;99.90;;;;;;7559107;19;20915;-72
2023/10/21 07:09:52;;;;;;;2.60;1.87;;;11.70;99.90;;;;;;7558675;19;20011;-75
2023/10/21 07:12:25;;;;;;;5.13;1.70;;;11.80;99.90;;;;;;7575502;19;20025;-75
2023/10/21 07:14:57;;;;;;;2.60;1.40;;;12.10;99.90;;;;;;7574428;19;20014;-75
2023/10/21 07:17:34;;;;;;;2.50;1.52;;;12.30;99.90;;;;;;7582331;19;20037;-73
2023/10/21 07:20:07;;;;;;;7.60;1.60;;;12.50;99.90;;;;;;7574585;19;20910;-73
2023/10/21 07:22:44;;;;;;;4.93;1.60;;;12.70;99.90;;;;;;7562693;19;20022;-73
2023/10/21 07:25:18;;;;;;;3.08;1.52;;;12.70;99.90;;;;;;7559057;19;20018;-74
2023/10/21 07:27:50;;;;;;;2.90;1.60;;;12.80;99.90;;;;;;7566222;19;20018;-73
2023/10/21 07:30:24;;;;;;;1.60;1.00;;;12.90;99.90;;;;;;7575275;19;20021;-73
2023/10/21 07:32:56;;;;;;;;;;;13.10;99.90;;;;;;7566791;19;20014;-73
2023/10/21 07:35:29;;;;;;;1.77;1.00;;;13.30;99.90;;;;;;7563992;19;19922;-73
2023/10/21 07:38:01;;;;;;;1.75;1.00;;;13.40;99.90;;;;;;7566687;19;20022;-73
2023/10/21 07:40:34;;;;;;;4.82;1.17;;;13.50;99.90;;;;;;7590588;19;20021;-73
2023/10/21 07:43:07;;;;;;;1.63;0.93;;;13.60;99.90;;;;;;7600415;19;20018;-72
2023/10/21 07:45:40;;;;;;;1.10;0.80;;;13.80;99.90;;;;;;7587638;19;20022;-73
2023/10/21 07:48:13;;;;;;;1.23;0.70;;;13.90;99.90;;;;;;7591743;19;20019;-73
2023/10/21 07:50:53;;;;;;;2.00;0.60;;;14.00;99.90;;;;;;7587708;19;20042;-73
2023/10/21 07:53:25;;;;;;;1.02;0.73;;;14.20;99.90;;;;;;7583388;19;20018;-73
2023/10/21 07:55:58;;;;;;;1.02;0.52;;;14.30;99.90;;;;;;7579504;19;20475;-75
2023/10/21 07:58:30;;;;;;;0.85;0.60;;;14.40;99.90;;;;;;7557681;19;20035;-73
2023/10/21 08:01:03;;;;;;;0.80;0.60;;;14.40;99.90;;;;;;7568033;19;20018;-74
2023/10/21 08:03:36;;;;;;;1.45;0.65;;;14.60;99.90;;;;;;7583389;19;20926;-71
2023/10/21 08:06:08;;;;;;;1.67;0.73;;;14.60;99.90;;;;;;7562268;19;21102;-73
2023/10/21 08:08:42;;;;;;;0.55;0.50;;;14.70;99.90;;;;;;7588130;19;20048;-72
2023/10/21 08:11:14;;;;;;;0.40;0.40;;;14.80;99.90;;;;;;7581860;19;20665;-72
2023/10/21 08:13:47;;;;;;;0.80;0.65;;;14.90;99.90;;;;;;7573469;19;20018;-73
2023/10/21 08:16:19;;;;;;;0.45;0.30;;;14.90;99.90;;;;;;7564338;19;20089;-72
2023/10/21 08:18:51;;;;;;;0.63;0.30;;;15.00;99.90;;;;;;7565043;19;20852;-75
2023/10/21 08:21:24;;;;;;;0.38;0.38;;;15.10;99.90;;;;;;7575225;19;21516;-75
2023/10/21 08:23:58;;;;;;;1.17;0.47;;;15.20;99.90;;;;;;7571891;19;20025;-74
2023/10/21 08:26:31;;;;;;;5.35;1.02;;;15.30;99.90;;;;;;7566471;19;20019;-75
2023/10/21 08:29:05;;;;;;;0.82;0.60;;;15.50;99.90;;;;;;7583456;19;20015;-75
2023/10/21 08:31:38;;;;;;;0.63;0.47;;;15.50;99.90;;;;;;7577451;19;21066;-75
2023/10/21 08:34:12;;;;;;;1.48;0.50;;;15.50;99.90;;;;;;7572268;19;20007;-75
2023/10/21 08:36:45;;;;;;;0.70;0.40;;;15.50;99.90;;;;;;7584450;19;20014;-76
2023/10/21 08:39:17;;;;;;;2.05;1.08;;;15.60;99.90;;;;;;7568754;19;20058;-75
2023/10/21 08:41:50;;;;;;;0.77;0.40;;;15.60;99.90;;;;;;7556470;19;20007;-74
2023/10/21 08:44:24;;;;;;;0.40;0.32;;;15.70;99.90;;;;;;7570462;19;20547;-74
2023/10/21 08:46:58;;;;;;;3.83;0.57;;;15.70;99.90;;;;;;7565064;19;20098;-74
2023/10/21 08:49:33;;;;;;;1.02;0.52;;;15.70;99.90;;;;;;7566667;19;20026;-75
2023/10/21 08:52:10;;;;;;;0.90;0.55;;;15.80;99.90;;;;;;7574314;19;20082;-76
2023/10/21 08:54:45;;;;;;;3.03;0.52;;;15.80;99.90;;;;;;7583182;19;20010;-75
2023/10/21 08:57:18;;;;;;;3.03;0.82;;;15.70;99.90;;;;;;7576008;19;20014;-75
2023/10/21 08:59:50;;;;;;;0.77;0.40;;;15.80;99.90;;;;;;7568844;19;20945;-74
2023/10/21 09:02:25;;;;;;;2.58;0.55;;;15.90;99.90;;;;;;7573955;19;20991;-74
2023/10/21 09:04:57;;;;;;;4.38;1.75;;;16.00;99.90;;;;;;7587496;19;20653;-73
2023/10/21 09:07:47;;;;;;;2.88;1.17;;;16.10;99.90;;;;;;7579050;19;20832;-74
2023/10/21 09:10:21;;;;;;;4.85;1.35;;;16.20;99.90;;;;;;7561792;19;20025;-73
2023/10/21 09:12:53;;;;;;;1.58;0.52;;;16.10;99.90;;;;;;7584708;19;21800;-74
2023/10/21 09:15:35;;;;;;;0.52;0.52;;;16.20;99.90;;;;;;7554287;19;23311;-74
2023/10/21 09:18:10;;;;;;;0.50;0.50;;;16.20;99.90;;;;;;7590506;19;20661;-72
2023/10/21 09:20:49;;;;;;;4.00;1.17;;;16.20;99.90;;;;;;7570684;19;20037;-72
2023/10/21 09:23:21;;;;;;;0.80;0.40;;;16.20;99.90;;;;;;7570301;19;20018;-72
2023/10/21 09:25:54;;;;;;;0.43;0.32;;;16.20;99.90;;;;;;7582403;19;20022;-74
2023/10/21 09:28:26;;;;;;;5.10;0.70;;;16.20;99.90;;;;;;7577927;19;20018;-72
2023/10/21 09:31:01;;;;;;;0.50;0.40;;;16.20;99.90;;;;;;7573820;19;20026;-75
2023/10/21 09:33:54;;;;;;;1.35;0.43;;;16.40;99.90;;;;;;7561118;19;20014;-73
2023/10/21 09:36:27;;;;;;;0.90;0.50;;;16.50;99.90;;;;;;7600245;19;20911;-72
2023/10/21 09:39:03;;;;;;;2.20;0.55;;;16.60;99.90;;;;;;7566199;19;20021;-73
2023/10/21 09:41:37;;;;;;;4.68;0.80;;;16.60;99.90;;;;;;7552309;19;20022;-72
2023/10/21 09:44:10;;;;;;;0.88;0.60;;;16.80;99.90;;;;;;7564355;19;20082;-74
2023/10/21 09:46:47;;;;;;;0.38;0.30;;;16.80;99.90;;;;;;7587580;19;21015;-73
2023/10/21 09:49:22;;;;;;;0.60;0.55;;;17.00;99.90;;;;;;7561142;19;20044;-73
2023/10/21 09:52:10;;;;;;;0.60;0.57;;;16.90;99.90;;;;;;7571844;19;20018;-73
2023/10/21 09:54:47;;;;;;;0.82;0.68;;;16.80;99.90;;;;;;7593511;19;20014;-72
2023/10/21 09:57:20;;;;;;;0.38;0.28;;;16.90;99.90;;;;;;7592440;19;21237;-72
2023/10/21 09:59:54;;;;;;;0.93;0.28;;;16.80;99.90;;;;;;7586400;19;20357;-73
2023/10/21 10:02:26;;;;;;;0.40;0.40;;;16.80;99.90;;;;;;7582958;19;20018;-73
2023/10/21 10:04:59;;;;;;;0.40;0.30;;;16.80;99.90;;;;;;7579357;19;20044;-72
2023/10/21 10:07:32;;;;;;;0.30;0.30;;;17.00;99.90;;;;;;7573883;19;20151;-74
2023/10/21 10:10:14;;;;;;;0.52;0.50;;;17.00;99.90;;;;;;7575112;19;20037;-73
2023/10/21 10:12:52;;;;;;;0.30;0.30;;;17.10;99.90;;;;;;7565532;19;20037;-73
2023/10/21 10:15:45;;;;;;;0.47;0.43;;;17.20;99.90;;;;;;7568201;19;20353;-73
2023/10/21 10:18:21;;;;;;;0.38;0.30;;;17.20;99.90;;;;;;7562630;19;20365;-73
2023/10/21 10:20:56;;;;;;;0.73;0.40;;;17.10;99.90;;;;;;7568223;19;20060;-74
2023/10/21 10:23:29;;;;;;;0.60;0.40;;;17.30;99.90;;;;;;7574813;19;20029;-75
2023/10/21 10:26:02;;;;;;;0.38;0.30;;;17.40;99.90;;;;;;7564758;19;20480;-71
2023/10/21 10:28:34;;;;;;;0.40;0.40;;;17.50;99.90;;;;;;7562434;19;20024;-75
2023/10/21 10:31:07;;;;;;;2.20;0.40;;;17.60;99.90;;;;;;7582623;19;20018;-71
2023/10/21 10:33:50;;;;;;;0.52;0.38;;;17.70;99.90;;;;;;7569715;19;20026;-73
2023/10/21 10:36:29;;;;;;;0.77;0.30;;;17.80;99.90;;;;;;7575874;19;20018;-72
2023/10/21 10:39:04;;;;;;;0.50;0.30;;;18.10;99.90;;;;;;7577464;19;20055;-73
2023/10/21 10:41:47;;;;;;;1.02;0.40;;;18.40;99.90;;;;;;7589382;19;20602;-74
2023/10/21 10:44:20;;;;;;;0.30;0.30;;;18.60;99.90;;;;;;7575500;19;20519;-72
2023/10/21 10:46:53;;;;;;;0.35;0.30;;;18.70;99.90;;;;;;7567447;19;20014;-71
2023/10/21 10:49:27;;;;;;;0.47;0.40;;;18.70;99.90;;;;;;7572743;19;20104;-71
2023/10/21 10:52:00;;;;;;;0.80;0.57;;;18.80;99.90;;;;;;7557472;19;20047;-74
2023/10/21 10:54:33;;;;;;;1.00;0.40;;;18.70;99.90;;;;;;7566237;19;20025;-73
2023/10/21 10:57:16;;;;;;;0.60;0.45;;;18.90;99.90;;;;;;7570259;19;20018;-72
2023/10/21 10:59:50;;;;;;;1.30;0.30;;;19.10;99.90;;;;;;7559222;19;20376;-70
2023/10/21 11:02:27;;;;;;;0.80;0.40;;;19.20;99.90;;;;;;7567155;19;20015;-75
2023/10/21 11:04:59;;;;;;;0.73;0.45;;;19.10;99.90;;;;;;7563865;19;20117;-73
2023/10/21 11:07:32;;;;;;;0.83;0.80;;;19.00;99.90;;;;;;7581574;19;20049;-72
2023/10/21 11:10:06;;;;;;;0.63;0.40;;;18.90;99.90;;;;;;7584855;19;20055;-72
2023/10/21 11:12:39;;;;;;;0.43;0.43;;;18.80;99.90;;;;;;7588381;19;20010;-71
2023/10/21 11:15:12;;;;;;;0.60;0.40;;;18.70;99.90;;;;;;7583393;19;20018;-73
2023/10/21 11:17:48;;;;;;;0.68;0.40;;;18.80;99.90;;;;;;7587854;19;20023;-72
2023/10/21 11:20:20;;;;;;;0.75;0.40;;;18.80;99.90;;;;;;7578530;19;20010;-74
2023/10/21 11:22:53;;;;;;;0.47;0.45;;;23.10;97.10;;;;;;7580759;19;20018;-76
2023/10/21 11:25:26;;;;;;;0.68;0.60;;;26.00;92.50;;;;;;7579678;19;20908;-74
2023/10/21 11:28:00;;;;;;;1.08;0.60;;;28.30;85.30;;;;;;7585928;19;20366;-74
2023/10/21 11:30:34;;;;;;;2.45;0.47;;;28.80;76.90;;;;;;7588247;19;20074;-73
2023/10/21 11:33:10;;;;;;;4.60;0.38;;;28.90;71.30;;;;;;7579780;19;20015;-74
2023/10/21 11:35:45;;;;;;;1.75;0.57;;;29.20;69.80;;;;;;7592015;19;20046;-75
2023/10/21 11:38:18;;;;;;;1.95;0.47;;;26.80;71.50;;;;;;7593879;19;20692;-75
2023/10/21 11:40:50;;;;;;;2.30;0.40;;;24.20;77.20;;;;;;7593072;19;20049;-72
2023/10/21 11:43:25;;;;;;;1.25;0.50;;;22.70;80.90;;;;;;7584866;19;20655;-75
2023/10/21 11:45:57;;;;;;;0.60;0.45;;;21.70;83.80;;;;;;7584492;19;20019;-74
2023/10/21 11:48:30;;;;;;;0.52;0.20;;;20.90;87.30;;;;;;7579803;19;20093;-74
2023/10/21 11:51:03;;;;;;;1.15;0.40;;;20.40;89.40;;;;;;7582638;19;20014;-76
2023/10/21 11:53:35;;;;;;;0.37;0.23;;;20.10;90.80;;;;;;7583463;19;20010;-71
2023/10/21 12:00:39;;;;;;;0.45;0.35;;;19.60;91.40;;;;;;7569334;19;20014;-74
2023/10/21 12:03:10;;;;;;;0.73;0.25;;;19.50;92.70;;;;;;7580010;19;20024;-74
2023/10/21 12:16:25;;;;;;;0.77;0.40;;;20.20;92.20;;;;;;7598843;19;20119;-72
2023/10/21 12:33:04;;;;;;;1.73;0.50;;;19.60;92.10;;;;;;7572757;19;20495;-73
2023/10/21 12:38:22;;;;;;;0.57;0.40;;;19.90;92.60;;;;;;7578387;19;20026;-73
2023/10/21 12:41:15;;;;;;;0.50;0.40;;;20.10;92.70;;;;;;7572861;19;21122;-73
2023/10/21 12:43:51;;;;;;;0.73;0.50;;;20.50;91.60;;;;;;7571777;19;20973;-73
2023/10/21 12:46:30;;;;;;;1.15;0.30;;;20.20;92.10;;;;;;7570946;19;20525;-73
2023/10/21 12:49:12;;;;;;;0.52;0.38;;;19.90;93.00;;;;;;7574010;19;20017;-72
2023/10/21 12:51:58;;;;;;;;;;;19.60;93.00;;;;;;7585286;19;20914;-73
2023/10/21 12:54:31;;;;;;;0.32;0.30;;;19.20;93.80;;;;;;7590550;19;19922;-74
2023/10/21 12:57:04;;;;;;;0.55;0.32;;;18.90;94.50;;;;;;7596213;19;20014;-75
2023/10/21 12:59:36;;;;;;;2.33;0.47;;;18.80;95.20;;;;;;7584098;19;22129;-74
2023/10/21 13:02:10;;;;;;;0.82;0.43;;;18.60;95.50;;;;;;7586224;19;20034;-72
2023/10/21 13:04:42;;;;;;;0.38;0.30;;;18.40;95.90;;;;;;7584615;19;20018;-72
2023/10/21 13:07:15;;;;;;;1.30;0.52;;;18.30;96.20;;;;;;7568643;19;20085;-73
2023/10/21 13:09:47;;;;;;;1.23;0.50;;;18.20;97.00;;;;;;7583347;19;20014;-72
2023/10/21 13:12:20;;;;;;;2.58;0.55;;;18.20;96.90;;;;;;7586786;19;20014;-72
2023/10/21 13:14:52;;;;;;;0.93;0.40;;;18.20;97.10;;;;;;7586357;19;20026;-72
2023/10/21 13:17:25;;;;;;;0.80;0.50;;;18.20;96.80;;;;;;7579990;19;20368;-73
2023/10/21 13:19:57;;;;;;;4.23;0.60;;;18.00;97.00;;;;;;7580569;19;20413;-73
2023/10/21 13:22:29;;;;;;;0.60;0.45;;;18.00;97.00;;;;;;7582333;19;20077;-73
2023/10/21 13:25:07;;;;;;;2.75;0.60;;;17.90;97.40;;;;;;7584165;19;20037;-73
2023/10/21 13:27:49;;;;;;;0.60;0.40;;;17.90;97.40;;;;;;7581820;19;20056;-75
2023/10/21 13:30:21;;;;;;;0.70;0.60;;;17.90;97.70;;;;;;7582412;19;20642;-75
2023/10/21 13:32:54;;;;;;;0.90;0.55;;;17.90;98.00;;;;;;7582301;19;21963;-72
2023/10/21 13:35:30;;;;;;;1.25;0.32;;;17.90;97.60;;;;;;7585908;19;21099;-72
2023/10/21 13:38:02;;;;;;;0.85;0.40;;;17.90;97.50;;;;;;7580856;19;21116;-72
2023/10/21 13:40:37;;;;;;;0.50;0.50;;;17.80;97.00;;;;;;7577775;19;20021;-72
2023/10/21 13:43:10;;;;;;;0.38;0.35;;;17.90;96.70;;;;;;7576284;19;20283;-75
2023/10/21 13:45:42;;;;;;;2.95;0.40;;;18.00;96.90;;;;;;7577612;19;20053;-73
2023/10/21 13:48:14;;;;;;;0.47;0.40;;;18.20;96.30;;;;;;7576013;19;20014;-73
2023/10/21 13:50:50;;;;;;;0.80;0.50;;;18.30;96.10;;;;;;7584110;19;20025;-73
2023/10/21 13:53:26;;;;;;;0.70;0.32;;;18.80;94.80;;;;;;7576953;19;20145;-73